createdAt,value
2023-04-26T00:01:58.822Z,9.63
2023-04-26T00:04:25.877Z,9.23
2023-04-26T00:06:52.791Z,8.00
2023-04-26T00:09:19.691Z,8.50
2023-04-26T00:11:46.777Z,8.40
2023-04-26T00:14:13.748Z,9.03
2023-04-26T00:16:40.634Z,8.60
2023-04-26T00:19:07.421Z,9.20
2023-04-26T00:21:35.204Z,7.40
2023-04-26T00:24:01.943Z,9.10
2023-04-26T00:26:29.880Z,8.63
2023-04-26T00:28:56.671Z,7.70
2023-04-26T00:31:23.496Z,8.20
2023-04-26T00:33:51.433Z,7.43
2023-04-26T00:36:19.448Z,8.40
2023-04-26T00:38:46.968Z,8.50
2023-04-26T00:41:14.577Z,8.07
2023-04-26T00:43:41.482Z,8.20
2023-04-26T00:46:09.866Z,9.35
2023-04-26T00:48:37.425Z,8.60
2023-04-26T00:51:05.853Z,9.70
2023-04-26T00:53:34.291Z,8.70
2023-04-26T00:56:01.369Z,9.70
2023-04-26T00:58:28.648Z,9.03
2023-04-26T01:00:56.138Z,10.20
2023-04-26T01:03:23.115Z,8.88
2023-04-26T01:05:50.503Z,9.60
2023-04-26T01:08:20.781Z,9.20
2023-04-26T01:10:50.873Z,9.10
2023-04-26T01:13:17.822Z,9.43
2023-04-26T01:15:48.293Z,10.00
2023-04-26T01:18:15.424Z,9.25
2023-04-26T01:20:43.290Z,9.10
2023-04-26T01:23:11.541Z,10.05
2023-04-26T01:25:38.517Z,10.43
2023-04-26T01:28:05.534Z,10.88
2023-04-26T01:30:32.224Z,10.73
2023-04-26T01:32:59.421Z,10.20
2023-04-26T01:35:26.342Z,11.35
2023-04-26T01:37:53.130Z,12.52
2023-04-26T01:40:19.946Z,11.20
2023-04-26T01:42:46.707Z,11.55
2023-04-26T01:45:13.433Z,12.30
2023-04-26T01:47:40.404Z,11.10
2023-04-26T01:50:08.045Z,11.50
2023-04-26T01:52:34.789Z,11.55
2023-04-26T01:55:01.581Z,12.05
2023-04-26T01:57:28.244Z,11.10
2023-04-26T01:59:56.726Z,9.90
2023-04-26T02:02:23.419Z,10.45
2023-04-26T02:04:50.281Z,10.55
2023-04-26T02:07:17.086Z,11.27
2023-04-26T02:09:44.218Z,10.38
2023-04-26T02:12:10.960Z,9.68
2023-04-26T02:14:37.649Z,11.30
2023-04-26T02:17:04.853Z,11.20
2023-04-26T02:19:31.669Z,10.70
2023-04-26T02:21:58.562Z,10.05
2023-04-26T02:24:25.865Z,10.15
2023-04-26T02:26:54.628Z,11.00
2023-04-26T02:29:35.973Z,8.75
2023-04-26T02:32:08.659Z,9.75
2023-04-26T02:34:36.287Z,9.68
2023-04-26T02:37:03.050Z,9.68
2023-04-26T02:39:29.855Z,9.70
2023-04-26T02:41:57.500Z,9.00
2023-04-26T02:44:24.187Z,8.98
2023-04-26T02:46:51.144Z,8.18
2023-04-26T02:49:17.981Z,9.02
2023-04-26T02:51:44.678Z,9.07
2023-04-26T02:54:11.384Z,9.60
2023-04-26T02:56:38.052Z,8.88
2023-04-26T02:59:04.753Z,9.70
2023-04-26T03:01:31.520Z,9.38
2023-04-26T03:03:58.437Z,8.50
2023-04-26T03:06:25.296Z,10.20
2023-04-26T03:08:52.201Z,9.48
2023-04-26T03:11:19.212Z,9.23
2023-04-26T03:13:45.932Z,10.15
2023-04-26T03:16:12.769Z,9.90
2023-04-26T03:18:39.472Z,10.43
2023-04-26T03:21:06.598Z,10.15
2023-04-26T03:23:34.105Z,9.90
2023-04-26T03:26:00.849Z,12.32
2023-04-26T03:28:27.622Z,9.55
2023-04-26T03:30:56.752Z,10.30
2023-04-26T03:33:23.593Z,9.80
2023-04-26T03:35:51.552Z,9.40
2023-04-26T03:38:18.381Z,9.05
2023-04-26T03:40:45.097Z,9.48
2023-04-26T03:43:11.765Z,10.05
2023-04-26T03:45:38.501Z,10.00
2023-04-26T03:48:05.618Z,11.00
2023-04-26T03:50:32.594Z,9.80
2023-04-26T03:52:59.288Z,10.38
2023-04-26T03:55:26.212Z,10.73
2023-04-26T03:57:53.930Z,11.05
2023-04-26T04:00:21.390Z,10.82
2023-04-26T04:02:48.382Z,11.35
2023-04-26T04:05:15.503Z,10.57
2023-04-26T04:07:42.844Z,11.88
2023-04-26T04:10:10.892Z,10.60
2023-04-26T04:12:37.963Z,11.82
2023-04-26T04:15:05.028Z,11.07
2023-04-26T04:17:31.838Z,12.82
2023-04-26T04:19:58.706Z,11.55
2023-04-26T04:22:25.452Z,12.13
2023-04-26T04:24:52.266Z,11.98
2023-04-26T04:27:18.972Z,11.27
2023-04-26T04:29:46.230Z,11.35
2023-04-26T04:32:15.006Z,11.38
2023-04-26T04:34:41.800Z,11.35
2023-04-26T04:37:08.840Z,11.68
2023-04-26T04:39:35.666Z,10.75
2023-04-26T04:42:02.419Z,11.80
2023-04-26T04:44:29.380Z,11.32
2023-04-26T04:46:56.749Z,12.00
2023-04-26T04:49:24.955Z,10.45
2023-04-26T04:51:51.869Z,11.00
2023-04-26T04:54:19.210Z,11.55
2023-04-26T04:56:45.960Z,11.93
2023-04-26T04:59:12.791Z,10.82
2023-04-26T05:01:39.586Z,10.05
2023-04-26T05:04:07.586Z,9.93
2023-04-26T05:06:34.674Z,11.32
2023-04-26T05:09:01.731Z,10.52
2023-04-26T05:11:28.662Z,9.88
2023-04-26T05:13:55.652Z,12.50
2023-04-26T05:16:22.809Z,11.85
2023-04-26T05:18:49.739Z,11.98
2023-04-26T05:21:17.045Z,11.68
2023-04-26T05:23:43.879Z,13.52
2023-04-26T05:26:15.264Z,13.50
2023-04-26T05:28:42.285Z,14.20
2023-04-26T05:31:11.382Z,15.30
2023-04-26T05:33:38.523Z,14.73
2023-04-26T05:36:05.801Z,14.02
2023-04-26T05:38:32.590Z,15.20
2023-04-26T05:40:59.268Z,15.77
2023-04-26T05:43:26.392Z,15.55
2023-04-26T05:45:54.378Z,14.35
2023-04-26T05:48:22.338Z,14.93
2023-04-26T05:50:49.777Z,14.88
2023-04-26T05:53:16.695Z,15.82
2023-04-26T05:55:43.759Z,14.93
2023-04-26T05:58:10.767Z,13.70
2023-04-26T06:00:38.685Z,12.60
2023-04-26T06:03:05.992Z,14.75
2023-04-26T06:05:33.254Z,13.93
2023-04-26T06:08:01.479Z,13.65
2023-04-26T06:10:28.325Z,14.68
2023-04-26T06:12:55.141Z,15.75
2023-04-26T06:15:21.965Z,14.57
2023-04-26T06:17:48.958Z,13.80
2023-04-26T06:20:16.330Z,13.80
2023-04-26T06:22:43.224Z,13.23
2023-04-26T06:25:10.191Z,13.82
2023-04-26T06:27:39.012Z,13.55
2023-04-26T06:30:07.828Z,14.18
2023-04-26T06:32:34.740Z,12.50
2023-04-26T06:35:01.719Z,14.77
2023-04-26T06:37:28.621Z,13.30
2023-04-26T06:39:55.496Z,13.63
2023-04-26T06:42:22.476Z,13.38
2023-04-26T06:44:49.333Z,13.03
2023-04-26T06:47:16.059Z,12.32
2023-04-26T06:49:42.793Z,12.03
2023-04-26T06:52:09.816Z,10.50
2023-04-26T06:54:46.281Z,10.90
2023-04-26T06:57:20.698Z,10.33
2023-04-26T06:59:47.470Z,10.10
2023-04-26T07:02:15.824Z,11.27
2023-04-26T07:04:43.302Z,11.97
2023-04-26T07:07:13.019Z,9.00
2023-04-26T07:09:41.079Z,7.57
2023-04-26T07:12:08.135Z,8.73
2023-04-26T07:14:38.550Z,7.70
2023-04-26T07:17:06.507Z,7.50
2023-04-26T07:19:33.505Z,7.70
2023-04-26T07:22:00.186Z,7.77
2023-04-26T07:24:27.152Z,8.23
2023-04-26T07:26:54.094Z,6.80
2023-04-26T07:29:21.334Z,7.63
2023-04-26T07:31:48.699Z,7.00
2023-04-26T07:34:15.479Z,6.70
2023-04-26T07:36:42.168Z,6.50
2023-04-26T07:39:10.727Z,5.00
2023-04-26T07:41:37.785Z,4.67
2023-04-26T07:44:04.708Z,3.97
2023-04-26T07:46:33.786Z,4.23
2023-04-26T07:49:00.828Z,4.00
2023-04-26T07:51:27.929Z,4.10
2023-04-26T07:53:55.876Z,4.60
2023-04-26T07:56:24.307Z,3.70
2023-04-26T07:58:51.712Z,3.30
2023-04-26T08:01:18.826Z,3.83
2023-04-26T08:03:46.017Z,3.97
2023-04-26T08:06:13.086Z,3.77
2023-04-26T08:08:44.808Z,3.27
2023-04-26T08:11:12.031Z,3.40
2023-04-26T08:13:38.828Z,4.50
2023-04-26T08:16:06.469Z,3.90
2023-04-26T08:18:33.640Z,3.50
2023-04-26T08:21:00.530Z,3.13
2023-04-26T08:23:28.376Z,3.10
2023-04-26T08:25:55.162Z,3.80
2023-04-26T08:28:21.947Z,3.27
2023-04-26T08:30:48.803Z,3.07
2023-04-26T08:33:17.844Z,3.60
2023-04-26T08:35:44.869Z,3.77
2023-04-26T08:38:11.659Z,3.40
2023-04-26T08:40:38.617Z,3.47
2023-04-26T08:43:05.722Z,3.50
2023-04-26T08:45:35.168Z,3.30
2023-04-26T08:48:14.781Z,3.20
2023-04-26T08:50:44.283Z,3.50
2023-04-26T08:53:15.793Z,4.60
2023-04-26T08:55:47.448Z,3.93
2023-04-26T08:58:14.820Z,2.93
2023-04-26T09:00:43.987Z,3.77
2023-04-26T09:03:11.270Z,3.77
2023-04-26T09:05:43.946Z,3.20
2023-04-26T09:08:16.185Z,3.37
2023-04-26T09:10:43.123Z,3.93
2023-04-26T09:13:10.074Z,3.63
2023-04-26T09:15:37.009Z,3.33
2023-04-26T09:18:18.274Z,3.03
2023-04-26T09:20:45.907Z,3.00
2023-04-26T09:23:14.098Z,2.40
2023-04-26T09:25:41.404Z,2.67
2023-04-26T09:28:28.422Z,2.67
2023-04-26T09:30:55.178Z,2.50
2023-04-26T09:33:22.004Z,3.00
2023-04-26T09:35:48.853Z,3.10
2023-04-26T09:38:17.784Z,2.43
2023-04-26T09:40:46.601Z,2.50
2023-04-26T09:43:18.264Z,3.20
2023-04-26T09:45:51.435Z,2.53
2023-04-26T09:48:30.858Z,2.40
2023-04-26T09:51:03.491Z,1.90
2023-04-26T09:53:38.729Z,2.37
2023-04-26T09:56:16.183Z,2.37
2023-04-26T09:59:02.523Z,2.90
2023-04-26T10:01:30.368Z,2.33
2023-04-26T10:03:58.352Z,2.40
2023-04-26T10:06:25.717Z,2.60
2023-04-26T10:08:52.750Z,3.37
2023-04-26T10:11:21.631Z,2.63
2023-04-26T10:13:51.476Z,2.50
2023-04-26T10:16:19.514Z,2.40
2023-04-26T10:18:46.364Z,2.13
2023-04-26T10:21:20.348Z,2.10
2023-04-26T10:23:49.368Z,2.27
2023-04-26T10:26:51.644Z,2.70
2023-04-26T10:29:19.528Z,2.77
2023-04-26T10:32:04.474Z,3.03
2023-04-26T10:34:33.027Z,2.90
2023-04-26T10:37:17.210Z,3.20
2023-04-26T10:39:47.193Z,2.60
2023-04-26T10:42:30.985Z,2.40
2023-04-26T10:44:59.207Z,2.40
2023-04-26T10:47:38.881Z,3.10
2023-04-26T10:50:10.580Z,3.10
2023-04-26T10:52:58.576Z,2.77
2023-04-26T10:55:42.384Z,2.97
2023-04-26T10:58:40.901Z,2.73
2023-04-26T11:01:17.518Z,2.17
2023-04-26T11:04:05.050Z,2.40
2023-04-26T11:06:51.274Z,2.20
2023-04-26T11:09:36.272Z,2.70
2023-04-26T11:12:13.505Z,2.23
2023-04-26T11:14:42.276Z,2.23
2023-04-26T11:17:09.952Z,2.23
2023-04-26T11:19:36.964Z,2.20
2023-04-26T11:22:07.364Z,2.13
2023-04-26T11:24:39.090Z,2.23
2023-04-26T11:27:10.488Z,2.10
2023-04-26T11:29:37.547Z,2.40
2023-04-26T11:32:04.741Z,2.43
2023-04-26T11:34:35.703Z,2.77
2023-04-26T11:37:04.761Z,2.53
2023-04-26T11:39:32.741Z,2.17
2023-04-26T11:42:09.994Z,2.07
2023-04-26T11:44:38.196Z,2.10
2023-04-26T11:47:06.637Z,2.43
2023-04-26T11:49:36.092Z,2.27
2023-04-26T11:52:04.947Z,2.53
2023-04-26T11:54:33.622Z,1.80
2023-04-26T11:57:01.000Z,2.20
2023-04-26T11:59:30.169Z,2.10
2023-04-26T12:01:57.823Z,2.10
2023-04-26T12:04:31.446Z,2.10
2023-04-26T12:06:58.842Z,2.43
2023-04-26T12:09:31.726Z,2.50
2023-04-26T12:11:59.292Z,2.43
2023-04-26T12:14:39.637Z,2.20
2023-04-26T12:17:07.929Z,1.83
2023-04-26T12:19:36.788Z,2.30
2023-04-26T12:22:04.424Z,2.57
2023-04-26T12:24:36.955Z,2.73
2023-04-26T12:27:06.631Z,2.20
2023-04-26T12:29:33.973Z,2.40
2023-04-26T12:32:01.435Z,2.30
2023-04-26T12:34:28.772Z,2.20
2023-04-26T12:36:55.865Z,2.13
2023-04-26T12:39:23.013Z,2.60
2023-04-26T12:41:49.972Z,2.30
2023-04-26T12:44:17.574Z,1.80
2023-04-26T12:46:45.924Z,1.93
2023-04-26T12:49:13.148Z,2.20
2023-04-26T12:51:39.921Z,2.33
2023-04-26T12:54:06.656Z,1.90
2023-04-26T12:56:35.120Z,2.17
2023-04-26T12:59:02.137Z,2.47
2023-04-26T13:01:29.006Z,1.70
2023-04-26T13:03:56.938Z,2.33
2023-04-26T13:06:24.084Z,2.50
2023-04-26T13:08:50.849Z,2.23
2023-04-26T13:11:18.153Z,2.17
2023-04-26T13:13:45.240Z,2.03
2023-04-26T13:16:13.142Z,2.73
2023-04-26T13:18:40.704Z,2.27
2023-04-26T13:21:07.855Z,2.30
2023-04-26T13:23:34.704Z,2.70
2023-04-26T13:26:01.674Z,2.30
2023-04-26T13:28:28.447Z,2.80
2023-04-26T13:30:56.033Z,4.03
2023-04-26T13:33:23.037Z,2.83
2023-04-26T13:35:49.887Z,2.60
2023-04-26T13:38:17.176Z,2.83
2023-04-26T13:40:44.677Z,2.20
2023-04-26T13:43:11.578Z,2.80
2023-04-26T13:45:38.851Z,2.63
2023-04-26T13:48:06.130Z,2.50
2023-04-26T13:50:32.993Z,2.40
2023-04-26T13:53:00.151Z,2.60
2023-04-26T13:55:26.969Z,2.50
2023-04-26T13:57:53.776Z,2.20
2023-04-26T14:00:20.938Z,3.20
2023-04-26T14:02:48.554Z,3.50
2023-04-26T14:05:16.729Z,1.90
2023-04-26T14:07:43.723Z,2.77
2023-04-26T14:10:10.744Z,2.63
2023-04-26T14:12:37.516Z,2.50
2023-04-26T14:15:06.159Z,1.90
2023-04-26T14:17:33.537Z,2.40
2023-04-26T14:20:00.587Z,2.20
2023-04-26T14:22:27.403Z,2.30
2023-04-26T14:24:54.207Z,2.67
2023-04-26T14:27:20.960Z,2.27
2023-04-26T14:29:47.886Z,2.23
2023-04-26T14:32:14.927Z,2.77
2023-04-26T14:34:42.656Z,2.57
2023-04-26T14:37:09.539Z,2.70
2023-04-26T14:39:37.151Z,2.60
2023-04-26T14:42:04.135Z,2.20
2023-04-26T14:44:30.901Z,1.93
2023-04-26T14:46:57.697Z,2.80
2023-04-26T14:49:24.611Z,2.43
2023-04-26T14:51:53.563Z,2.17
2023-04-26T14:54:21.061Z,2.33
2023-04-26T14:56:48.381Z,1.67
2023-04-26T14:59:15.217Z,2.23
2023-04-26T15:01:42.081Z,2.10
2023-04-26T15:04:09.003Z,2.30
2023-04-26T15:06:36.124Z,2.37
2023-04-26T15:09:04.025Z,2.20
2023-04-26T15:11:30.889Z,1.90
2023-04-26T15:13:57.616Z,2.23
2023-04-26T15:16:24.475Z,2.30
2023-04-26T15:18:51.561Z,2.63
2023-04-26T15:21:19.720Z,2.60
2023-04-26T15:23:46.699Z,2.50
2023-04-26T15:26:14.056Z,2.40
2023-04-26T15:28:40.878Z,2.40
2023-04-26T15:31:11.391Z,2.40
2023-04-26T15:33:38.363Z,2.80
2023-04-26T15:36:05.722Z,2.50
2023-04-26T15:38:34.890Z,2.67
2023-04-26T15:41:01.775Z,2.70
2023-04-26T15:43:28.637Z,2.53
2023-04-26T15:45:55.665Z,2.33
2023-04-26T15:48:22.512Z,2.70
2023-04-26T15:50:50.631Z,2.70
2023-04-26T15:53:17.822Z,3.13
2023-04-26T15:55:44.802Z,2.33
2023-04-26T15:58:11.843Z,2.57
2023-04-26T16:00:38.794Z,3.33
2023-04-26T16:03:05.829Z,2.47
2023-04-26T16:05:32.909Z,3.30
2023-04-26T16:07:59.789Z,3.40
2023-04-26T16:10:27.056Z,2.50
2023-04-26T16:12:53.835Z,10.17
2023-04-26T16:15:20.696Z,5.13
2023-04-26T16:17:47.540Z,2.10
2023-04-26T16:20:15.207Z,2.17
2023-04-26T16:22:45.088Z,3.30
2023-04-26T16:25:12.156Z,2.20
2023-04-26T16:27:38.919Z,2.70
2023-04-26T16:30:06.244Z,2.70
2023-04-26T16:32:34.081Z,2.70
2023-04-26T16:35:01.047Z,3.03
2023-04-26T16:37:27.877Z,2.43
2023-04-26T16:39:55.788Z,2.40
2023-04-26T16:42:22.854Z,2.60
2023-04-26T16:44:49.606Z,2.87
2023-04-26T16:47:16.327Z,2.40
2023-04-26T16:49:43.129Z,4.90
2023-04-26T16:52:09.867Z,3.17
2023-04-26T16:54:36.618Z,2.63
2023-04-26T16:57:04.421Z,3.07
2023-04-26T16:59:31.318Z,2.60
2023-04-26T17:01:58.219Z,2.70
2023-04-26T17:04:26.324Z,2.47
2023-04-26T17:06:53.853Z,3.10
2023-04-26T17:09:20.707Z,3.50
2023-04-26T17:11:47.467Z,2.73
2023-04-26T17:14:14.236Z,2.87
2023-04-26T17:16:41.158Z,2.47
2023-04-26T17:19:08.111Z,3.63
2023-04-26T17:21:34.901Z,2.60
2023-04-26T17:24:01.756Z,1.90
2023-04-26T17:26:28.539Z,2.30
2023-04-26T17:28:56.305Z,2.40
2023-04-26T17:31:23.174Z,2.53
2023-04-26T17:33:50.234Z,2.60
2023-04-26T17:36:17.800Z,2.13
2023-04-26T17:38:44.606Z,2.17
2023-04-26T17:41:13.428Z,1.83
2023-04-26T17:43:40.383Z,2.60
2023-04-26T17:46:07.154Z,2.00
2023-04-26T17:48:33.943Z,2.20
2023-04-26T17:51:00.840Z,2.27
2023-04-26T17:53:27.855Z,2.30
2023-04-26T17:55:55.195Z,1.80
2023-04-26T17:58:21.963Z,2.50
2023-04-26T18:00:49.122Z,1.80
2023-04-26T18:03:16.034Z,2.37
2023-04-26T18:05:42.887Z,2.30
2023-04-26T18:08:09.755Z,2.10
2023-04-26T18:10:36.485Z,1.90
2023-04-26T18:13:03.204Z,2.57
2023-04-26T18:15:29.990Z,2.27
2023-04-26T18:17:56.789Z,1.87
2023-04-26T18:20:23.655Z,2.23
2023-04-26T18:22:50.579Z,2.20
2023-04-26T18:25:17.312Z,2.40
2023-04-26T18:27:44.139Z,2.30
2023-04-26T18:30:12.747Z,2.20
2023-04-26T18:32:39.602Z,1.70
2023-04-26T18:35:07.701Z,2.50
2023-04-26T18:37:34.551Z,1.97
2023-04-26T18:40:01.229Z,2.90
2023-04-26T18:42:28.037Z,2.37
2023-04-26T18:44:55.110Z,2.10
2023-04-26T18:47:21.945Z,2.03
2023-04-26T18:49:48.683Z,3.77
2023-04-26T18:52:15.503Z,2.47
2023-04-26T18:54:42.242Z,3.20
2023-04-26T18:57:10.686Z,2.90
2023-04-26T18:59:37.584Z,3.13
2023-04-26T19:02:05.307Z,2.80
2023-04-26T19:04:32.453Z,2.90
2023-04-26T19:07:00.751Z,3.67
2023-04-26T19:09:27.483Z,4.13
2023-04-26T19:11:54.266Z,3.50
2023-04-26T19:14:21.001Z,3.80
2023-04-26T19:16:48.037Z,4.80
2023-04-26T19:19:14.886Z,4.20
2023-04-26T19:21:41.863Z,6.80
2023-04-26T19:24:08.838Z,3.60
2023-04-26T19:26:37.328Z,5.73
2023-04-26T19:29:06.197Z,9.73
2023-04-26T19:31:33.920Z,4.17
2023-04-26T19:34:00.823Z,3.60
2023-04-26T19:36:27.572Z,2.50
2023-04-26T19:38:54.400Z,2.73
2023-04-26T19:41:21.522Z,2.77
2023-04-26T19:43:48.284Z,3.30
2023-04-26T19:46:15.499Z,3.03
2023-04-26T19:48:42.599Z,3.20
2023-04-26T19:51:15.361Z,3.30
2023-04-26T19:53:42.125Z,2.93
2023-04-26T19:56:10.900Z,3.20
2023-04-26T19:58:38.773Z,2.47
2023-04-26T20:01:05.923Z,2.40
2023-04-26T20:03:33.176Z,2.47
2023-04-26T20:06:00.175Z,2.40
2023-04-26T20:08:26.951Z,2.47
2023-04-26T20:10:53.684Z,2.20
2023-04-26T20:13:20.404Z,2.30
2023-04-26T20:15:47.179Z,2.60
2023-04-26T20:18:13.872Z,2.13
2023-04-26T20:20:40.651Z,2.97
2023-04-26T20:23:07.832Z,2.80
2023-04-26T20:25:34.955Z,2.80
2023-04-26T20:28:03.632Z,2.23
2023-04-26T20:30:33.670Z,3.10
2023-04-26T20:33:00.779Z,2.73
2023-04-26T20:35:27.673Z,2.47
2023-04-26T20:37:54.425Z,3.37
2023-04-26T20:40:22.069Z,2.77
2023-04-26T20:42:48.887Z,2.37
2023-04-26T20:45:16.611Z,2.47
2023-04-26T20:47:43.785Z,2.83
2023-04-26T20:50:11.001Z,3.10
2023-04-26T20:52:37.913Z,3.00
2023-04-26T20:55:05.276Z,3.07
2023-04-26T20:57:31.962Z,3.00
2023-04-26T20:59:58.731Z,2.53
2023-04-26T21:02:25.571Z,2.77
2023-04-26T21:04:52.627Z,3.03
2023-04-26T21:07:19.509Z,2.67
2023-04-26T21:09:46.440Z,2.80
2023-04-26T21:12:13.159Z,2.80
2023-04-26T21:14:39.904Z,2.90
2023-04-26T21:17:06.674Z,2.53
2023-04-26T21:19:33.438Z,3.10
2023-04-26T21:22:00.477Z,2.80
2023-04-26T21:24:27.331Z,2.60
2023-04-26T21:26:54.125Z,2.33
2023-04-26T21:29:20.945Z,2.40
2023-04-26T21:31:47.738Z,2.70
2023-04-26T21:34:14.585Z,2.27
2023-04-26T21:36:41.348Z,2.90
2023-04-26T21:39:09.276Z,2.80
2023-04-26T21:41:36.257Z,2.57
2023-04-26T21:44:02.929Z,2.60
2023-04-26T21:46:29.719Z,3.27
2023-04-26T21:48:56.733Z,2.40
2023-04-26T21:51:23.593Z,2.60
2023-04-26T21:53:50.526Z,2.57
2023-04-26T21:56:17.219Z,2.77
2023-04-26T21:58:43.936Z,2.70
2023-04-26T22:01:13.296Z,3.17
2023-04-26T22:03:40.703Z,2.47
2023-04-26T22:06:08.534Z,2.53
2023-04-26T22:08:35.888Z,2.70
2023-04-26T22:11:03.136Z,2.43
2023-04-26T22:13:30.821Z,2.83
2023-04-26T22:15:57.646Z,3.50
2023-04-26T22:18:25.913Z,2.90
2023-04-26T22:20:53.471Z,2.83
2023-04-26T22:23:20.404Z,2.83
2023-04-26T22:25:47.142Z,2.30
2023-04-26T22:28:13.944Z,2.77
2023-04-26T22:30:40.743Z,2.67
2023-04-26T22:33:07.582Z,3.37
2023-04-26T22:35:35.008Z,2.43
2023-04-26T22:38:01.762Z,2.60
2023-04-26T22:40:28.575Z,2.90
2023-04-26T22:42:55.572Z,2.87
2023-04-26T22:45:22.841Z,2.77
2023-04-26T22:47:49.805Z,2.83
2023-04-26T22:50:16.608Z,3.20
2023-04-26T22:52:43.376Z,3.37
2023-04-26T22:55:10.271Z,3.40
2023-04-26T22:57:37.509Z,3.40
2023-04-26T23:00:05.730Z,2.80
2023-04-26T23:02:32.892Z,2.73
2023-04-26T23:04:59.822Z,2.83
2023-04-26T23:07:26.813Z,2.57
2023-04-26T23:09:53.977Z,2.63
2023-04-26T23:12:20.778Z,3.17
2023-04-26T23:14:48.721Z,2.63
2023-04-26T23:17:15.692Z,2.40
2023-04-26T23:19:42.745Z,2.20
2023-04-26T23:22:09.539Z,2.53
2023-04-26T23:24:36.417Z,2.30
2023-04-26T23:27:03.807Z,2.97
2023-04-26T23:29:30.894Z,2.60
2023-04-26T23:31:57.636Z,2.90
2023-04-26T23:34:24.511Z,3.30
2023-04-26T23:36:51.244Z,3.00
2023-04-26T23:39:18.202Z,2.80
2023-04-26T23:41:45.209Z,2.60
2023-04-26T23:44:11.990Z,3.00
2023-04-26T23:46:38.771Z,3.20
2023-04-26T23:49:05.615Z,2.53
2023-04-26T23:51:32.465Z,3.10
2023-04-26T23:53:59.250Z,2.73
2023-04-26T23:56:26.124Z,2.10
2023-04-26T23:58:52.920Z,3.00
